Time;durP1;ratioP1;P1;durP2;ratioP2;P2;SDS_P1;SDS_P2;PMS_P1;PMS_P2;Temp;Humidity;BMP_temperature;BMP_pressure;BME280_temperature;BME280_humidity;BME280_pressure;Samples;Min_cycle;Max_cycle;Signal;HPM_P1;HPM_P2
2021/07/08 00:00:22;;;;;;;6.30;3.00;;;;;;;;;;4350186;32;20129;-70
2021/07/08 00:02:49;;;;;;;7.97;3.47;;;;;;;;;;4364169;32;20423;-70
2021/07/08 00:05:15;;;;;;;6.12;3.12;;;;;;;;;;4350129;32;20200;-70
2021/07/08 00:07:41;;;;;;;6.18;3.17;;;;;;;;;;4364125;32;20098;-70
2021/07/08 00:10:15;;;;;;;7.03;3.17;;;;;;;;;;4363755;32;20398;-70
2021/07/08 00:12:41;;;;;;;9.35;3.12;;;;;;;;;;4363841;32;20100;-70
2021/07/08 00:15:09;;;;;;;6.57;3.45;;;;;;;;;;4337984;32;20133;-70
2021/07/08 00:17:35;;;;;;;4.62;2.83;;;;;;;;;;4363741;32;20113;-70
2021/07/08 00:20:01;;;;;;;4.37;3.15;;;;;;;;;;4350337;32;20196;-70
2021/07/08 00:22:27;;;;;;;5.75;2.75;;;;;;;;;;4350316;32;20219;-70
2021/07/08 00:24:53;;;;;;;7.00;3.62;;;;;;;;;;4363805;32;20129;-70
2021/07/08 00:27:18;;;;;;;6.07;2.97;;;;;;;;;;4363609;32;20205;-70
2021/07/08 00:29:44;;;;;;;7.78;3.10;;;;;;;;;;4363735;32;20125;-70
2021/07/08 00:32:10;;;;;;;3.65;2.70;;;;;;;;;;4363694;32;20114;-70
2021/07/08 00:34:36;;;;;;;6.07;3.42;;;;;;;;;;4363669;32;20198;-69
2021/07/08 00:37:02;;;;;;;8.30;3.15;;;;;;;;;;4363910;32;20106;-70
2021/07/08 00:39:28;;;;;;;7.12;3.05;;;;;;;;;;4363592;32;20227;-70
2021/07/08 00:41:54;;;;;;;4.62;2.78;;;;;;;;;;4349878;32;20181;-69
2021/07/08 00:44:20;;;;;;;8.32;3.37;;;;;;;;;;4362992;32;20124;-69
2021/07/08 00:46:45;;;;;;;5.75;3.28;;;;;;;;;;4357973;32;20122;-69
2021/07/08 00:49:11;;;;;;;9.38;2.97;;;;;;;;;;4358843;32;20540;-69
2021/07/08 00:51:37;;;;;;;4.05;3.28;;;;;;;;;;4348778;33;20111;-69
2021/07/08 00:54:03;;;;;;;10.60;2.90;;;;;;;;;;4365413;32;20535;-69
2021/07/08 00:56:34;;;;;;;7.70;3.08;;;;;;;;;;4378143;32;20600;-69
2021/07/08 00:59:04;;;;;;;4.35;3.00;;;;;;;;;;4353317;32;20448;-69
2021/07/08 01:01:31;;;;;;;7.00;3.20;;;;;;;;;;4374980;32;20121;-68
2021/07/08 01:03:56;;;;;;;5.47;3.45;;;;;;;;;;4348647;32;20630;-69
2021/07/08 01:06:23;;;;;;;8.23;3.12;;;;;;;;;;4348477;32;20427;-68
2021/07/08 01:08:49;;;;;;;6.22;3.50;;;;;;;;;;4347188;33;20210;-68
2021/07/08 01:11:15;;;;;;;10.60;3.40;;;;;;;;;;4347098;33;20612;-69
2021/07/08 01:13:41;;;;;;;6.45;3.00;;;;;;;;;;4348556;32;20133;-69
2021/07/08 01:16:09;;;;;;;4.70;3.10;;;;;;;;;;4348451;32;20177;-69
2021/07/08 01:18:35;;;;;;;8.77;3.05;;;;;;;;;;4351930;32;20139;-69
2021/07/08 01:21:29;;;;;;;5.10;3.47;;;;;;;;;;4378221;32;20493;-69
2021/07/08 01:23:56;;;;;;;4.80;3.00;;;;;;;;;;4378278;32;20097;-69
2021/07/08 01:26:22;;;;;;;6.22;2.90;;;;;;;;;;4364654;32;20424;-69
2021/07/08 01:28:49;;;;;;;5.45;3.12;;;;;;;;;;4364428;32;20543;-69
2021/07/08 01:31:16;;;;;;;8.75;3.45;;;;;;;;;;4378227;32;20496;-68
2021/07/08 01:33:42;;;;;;;18.27;4.50;;;;;;;;;;4364390;32;20491;-69
2021/07/08 01:36:08;;;;;;;6.25;3.30;;;;;;;;;;4364196;32;20193;-69
2021/07/08 01:38:34;;;;;;;13.20;4.07;;;;;;;;;;4364168;32;20105;-68
2021/07/08 01:41:00;;;;;;;6.00;3.10;;;;;;;;;;4377998;32;20177;-69
2021/07/08 01:43:25;;;;;;;5.07;2.95;;;;;;;;;;4363802;32;20522;-69
2021/07/08 01:45:51;;;;;;;2.78;2.25;;;;;;;;;;4376164;32;20132;-69
2021/07/08 01:48:17;;;;;;;8.82;2.83;;;;;;;;;;4362966;32;20469;-69
2021/07/08 01:50:43;;;;;;;3.00;2.72;;;;;;;;;;4362983;32;20114;-69
2021/07/08 01:53:09;;;;;;;5.50;3.05;;;;;;;;;;4362890;32;20121;-69
2021/07/08 01:55:35;;;;;;;6.15;2.72;;;;;;;;;;4362842;32;20105;-69
2021/07/08 01:58:01;;;;;;;7.20;2.95;;;;;;;;;;4336840;32;20204;-69
2021/07/08 02:00:27;;;;;;;7.35;3.05;;;;;;;;;;4349178;32;20097;-69
2021/07/08 02:02:54;;;;;;;5.60;2.95;;;;;;;;;;4362843;32;20102;-69
2021/07/08 02:05:20;;;;;;;7.57;3.10;;;;;;;;;;4349082;32;20190;-69
2021/07/08 02:07:46;;;;;;;3.58;2.83;;;;;;;;;;4362772;32;20098;-69
2021/07/08 02:10:13;;;;;;;7.22;3.12;;;;;;;;;;4362642;32;20628;-69
2021/07/08 02:12:39;;;;;;;6.03;3.65;;;;;;;;;;4349035;32;20114;-69
2021/07/08 02:15:06;;;;;;;4.35;2.90;;;;;;;;;;4362624;32;20218;-69
2021/07/08 02:17:32;;;;;;;7.62;3.45;;;;;;;;;;4362876;32;20095;-69
2021/07/08 02:19:58;;;;;;;8.95;3.47;;;;;;;;;;4350507;32;20133;-69
2021/07/08 02:22:24;;;;;;;5.85;3.28;;;;;;;;;;4377747;32;20109;-69
2021/07/08 02:24:50;;;;;;;6.70;3.28;;;;;;;;;;4377775;32;20224;-69
2021/07/08 02:27:16;;;;;;;4.97;3.33;;;;;;;;;;4377601;32;20144;-69
2021/07/08 02:29:42;;;;;;;8.07;3.28;;;;;;;;;;4377707;32;20218;-69
2021/07/08 02:32:08;;;;;;;4.37;3.03;;;;;;;;;;4377538;32;20200;-69
2021/07/08 02:34:38;;;;;;;11.82;3.55;;;;;;;;;;4377317;32;20128;-69
2021/07/08 02:37:05;;;;;;;6.43;3.90;;;;;;;;;;4377711;32;20100;-69
2021/07/08 02:39:31;;;;;;;15.18;3.33;;;;;;;;;;4363454;32;20097;-69
2021/07/08 02:41:57;;;;;;;11.45;3.92;;;;;;;;;;4377576;32;20122;-69
2021/07/08 02:44:23;;;;;;;7.30;3.40;;;;;;;;;;4377296;32;20129;-69
2021/07/08 02:46:49;;;;;;;8.82;3.62;;;;;;;;;;4361789;32;20137;-69
2021/07/08 02:49:15;;;;;;;6.95;3.72;;;;;;;;;;4348569;32;20129;-69
2021/07/08 02:51:41;;;;;;;11.38;3.87;;;;;;;;;;4362401;32;20106;-69
2021/07/08 02:54:06;;;;;;;9.80;3.95;;;;;;;;;;4362191;32;20117;-69
2021/07/08 02:56:32;;;;;;;7.87;3.90;;;;;;;;;;4363491;32;20103;-70
2021/07/08 02:58:58;;;;;;;9.30;4.00;;;;;;;;;;4364608;32;20513;-70
2021/07/08 03:01:24;;;;;;;8.02;4.43;;;;;;;;;;4364368;32;20213;-70
2021/07/08 03:03:50;;;;;;;4.12;3.30;;;;;;;;;;4338890;32;20197;-70
2021/07/08 03:06:16;;;;;;;8.60;3.40;;;;;;;;;;4350809;32;20460;-69
2021/07/08 03:08:42;;;;;;;8.13;3.03;;;;;;;;;;4350726;32;20504;-70
2021/07/08 03:11:08;;;;;;;8.18;3.42;;;;;;;;;;4364228;32;20117;-70
2021/07/08 03:13:34;;;;;;;4.70;3.08;;;;;;;;;;4350636;32;20129;-70
2021/07/08 03:15:59;;;;;;;6.93;3.45;;;;;;;;;;4364275;32;20179;-70
2021/07/08 03:18:25;;;;;;;11.40;3.90;;;;;;;;;;4364203;32;20129;-70
2021/07/08 03:20:51;;;;;;;4.85;3.40;;;;;;;;;;4364586;32;20124;-70
2021/07/08 03:23:17;;;;;;;4.45;3.03;;;;;;;;;;4364293;32;20121;-72
2021/07/08 03:25:43;;;;;;;5.78;3.87;;;;;;;;;;4364281;32;20101;-68
2021/07/08 03:28:09;;;;;;;6.93;3.80;;;;;;;;;;4350485;32;20508;-72
2021/07/08 03:30:35;;;;;;;4.65;3.60;;;;;;;;;;4364300;32;20097;-71
2021/07/08 03:33:02;;;;;;;11.63;4.28;;;;;;;;;;4364144;32;20109;-66
2021/07/08 03:35:28;;;;;;;10.02;3.78;;;;;;;;;;4364503;32;20110;-69
2021/07/08 03:37:55;;;;;;;6.47;3.70;;;;;;;;;;4350584;32;20450;-69
2021/07/08 03:40:21;;;;;;;13.13;4.05;;;;;;;;;;4364223;32;20129;-69
2021/07/08 03:42:49;;;;;;;4.90;3.85;;;;;;;;;;4364145;32;20461;-69
2021/07/08 03:45:15;;;;;;;7.00;4.15;;;;;;;;;;4364326;32;20110;-70
2021/07/08 03:47:43;;;;;;;9.43;3.80;;;;;;;;;;4337968;32;20188;-72
2021/07/08 03:50:10;;;;;;;7.03;3.62;;;;;;;;;;4350274;32;20200;-72
2021/07/08 03:52:38;;;;;;;5.78;3.97;;;;;;;;;;4364416;32;20109;-69
2021/07/08 03:55:06;;;;;;;6.57;4.10;;;;;;;;;;4363864;32;20118;-69
2021/07/08 03:57:32;;;;;;;9.98;3.78;;;;;;;;;;4347726;32;20133;-69
2021/07/08 03:59:58;;;;;;;5.65;4.68;;;;;;;;;;4348965;32;20129;-69
2021/07/08 04:02:24;;;;;;;8.55;3.53;;;;;;;;;;4363658;32;20212;-70
2021/07/08 04:04:50;;;;;;;6.87;3.87;;;;;;;;;;4348510;32;20221;-69
2021/07/08 04:07:15;;;;;;;7.60;3.87;;;;;;;;;;4363550;32;20118;-69
2021/07/08 04:09:41;;;;;;;10.15;4.32;;;;;;;;;;4363947;32;20261;-69
2021/07/08 04:12:07;;;;;;;8.05;3.53;;;;;;;;;;4364210;32;20098;-69
2021/07/08 04:14:33;;;;;;;11.23;4.35;;;;;;;;;;4363884;32;20133;-69
2021/07/08 04:16:59;;;;;;;8.05;4.43;;;;;;;;;;4363832;32;20497;-69
2021/07/08 04:19:25;;;;;;;6.93;3.90;;;;;;;;;;4363826;32;20136;-70
2021/07/08 04:21:51;;;;;;;6.28;3.92;;;;;;;;;;4363842;32;20125;-70
2021/07/08 04:24:17;;;;;;;7.12;4.00;;;;;;;;;;4364026;32;20150;-70
2021/07/08 04:26:43;;;;;;;7.40;3.55;;;;;;;;;;4363935;32;20110;-69
2021/07/08 04:29:08;;;;;;;10.60;4.50;;;;;;;;;;4363960;32;20125;-69
2021/07/08 04:31:34;;;;;;;6.93;4.20;;;;;;;;;;4337711;32;20448;-69
2021/07/08 04:34:00;;;;;;;12.52;4.37;;;;;;;;;;4363663;32;20189;-69
2021/07/08 04:36:26;;;;;;;8.25;3.80;;;;;;;;;;4363627;32;20113;-69
2021/07/08 04:38:53;;;;;;;7.10;4.00;;;;;;;;;;4363832;32;20453;-69
2021/07/08 04:41:20;;;;;;;12.43;4.12;;;;;;;;;;4349811;32;20456;-69
2021/07/08 04:43:46;;;;;;;3.20;2.90;;;;;;;;;;4363675;32;20527;-69
2021/07/08 04:46:12;;;;;;;6.55;4.18;;;;;;;;;;4363612;32;20205;-69
2021/07/08 04:48:38;;;;;;;8.55;4.28;;;;;;;;;;4349801;32;20516;-69
2021/07/08 04:51:04;;;;;;;6.47;3.90;;;;;;;;;;4349850;32;20166;-69
2021/07/08 04:53:30;;;;;;;12.05;3.83;;;;;;;;;;4337631;32;20114;-70
2021/07/08 04:55:55;;;;;;;5.15;3.80;;;;;;;;;;4363408;32;20105;-69
2021/07/08 04:58:21;;;;;;;7.68;3.70;;;;;;;;;;4349694;32;20223;-70
2021/07/08 05:00:48;;;;;;;4.47;3.45;;;;;;;;;;4337531;32;20534;-69
2021/07/08 05:03:14;;;;;;;5.18;3.00;;;;;;;;;;4363344;32;20113;-70
2021/07/08 05:05:40;;;;;;;10.82;3.90;;;;;;;;;;4363628;32;20116;-70
2021/07/08 05:08:06;;;;;;;5.55;3.95;;;;;;;;;;4363568;32;20208;-69
2021/07/08 05:10:32;;;;;;;5.82;3.95;;;;;;;;;;4349812;32;20524;-69
2021/07/08 05:12:59;;;;;;;7.70;4.22;;;;;;;;;;4363359;32;20509;-69
2021/07/08 05:15:25;;;;;;;8.55;4.03;;;;;;;;;;4363557;32;20462;-69
2021/07/08 05:17:51;;;;;;;4.78;3.83;;;;;;;;;;4362661;32;20109;-69
2021/07/08 05:20:17;;;;;;;4.95;3.37;;;;;;;;;;4349523;32;20144;-69
2021/07/08 05:22:47;;;;;;;4.28;3.53;;;;;;;;;;4349366;32;20521;-69
2021/07/08 05:25:14;;;;;;;5.68;3.62;;;;;;;;;;4349380;32;20112;-69
2021/07/08 05:27:40;;;;;;;5.50;3.60;;;;;;;;;;4363429;32;20114;-69
2021/07/08 05:30:07;;;;;;;6.37;4.22;;;;;;;;;;4349520;32;20201;-70
2021/07/08 05:32:33;;;;;;;3.50;3.10;;;;;;;;;;4349364;32;20216;-69
2021/07/08 05:34:59;;;;;;;6.78;3.78;;;;;;;;;;4363387;32;20810;-70
2021/07/08 05:37:24;;;;;;;7.03;3.70;;;;;;;;;;4363190;32;20109;-70
2021/07/08 05:39:50;;;;;;;4.00;3.37;;;;;;;;;;4349248;32;20144;-69
2021/07/08 05:42:16;;;;;;;7.57;3.75;;;;;;;;;;4362936;32;20109;-70
2021/07/08 05:44:42;;;;;;;5.68;3.47;;;;;;;;;;4349325;32;20521;-69
2021/07/08 05:47:08;;;;;;;4.55;3.60;;;;;;;;;;4362962;32;20282;-70
2021/07/08 05:49:34;;;;;;;6.40;3.87;;;;;;;;;;4363049;32;20120;-69
2021/07/08 05:52:00;;;;;;;6.82;3.40;;;;;;;;;;4363347;32;20160;-69
2021/07/08 05:54:26;;;;;;;7.60;4.72;;;;;;;;;;4349210;32;20126;-69
2021/07/08 05:56:51;;;;;;;9.02;3.83;;;;;;;;;;4362633;32;20086;-69
2021/07/08 05:59:17;;;;;;;9.25;3.78;;;;;;;;;;4349048;32;20618;-69
2021/07/08 06:01:43;;;;;;;6.15;4.00;;;;;;;;;;4362808;32;20113;-69
2021/07/08 06:04:09;;;;;;;13.10;5.20;;;;;;;;;;4362828;32;20126;-69
2021/07/08 06:06:35;;;;;;;8.65;3.67;;;;;;;;;;4349082;32;20539;-70
2021/07/08 06:09:01;;;;;;;6.50;3.70;;;;;;;;;;4362756;32;20322;-70
2021/07/08 06:11:26;;;;;;;6.95;4.05;;;;;;;;;;4362707;32;20102;-70
2021/07/08 06:13:52;;;;;;;8.00;5.03;;;;;;;;;;4362712;32;20203;-69
2021/07/08 06:16:18;;;;;;;13.13;5.07;;;;;;;;;;4362629;32;20212;-70
2021/07/08 06:18:44;;;;;;;5.47;3.95;;;;;;;;;;4349187;32;20133;-70
2021/07/08 06:21:14;;;;;;;8.10;3.70;;;;;;;;;;4362534;32;20129;-70
2021/07/08 06:23:40;;;;;;;4.70;3.53;;;;;;;;;;4362610;32;20087;-70
2021/07/08 06:26:06;;;;;;;5.68;3.67;;;;;;;;;;4362581;32;20105;-69
2021/07/08 06:28:34;;;;;;;8.40;3.53;;;;;;;;;;4348824;32;20544;-69
2021/07/08 06:31:00;;;;;;;6.97;3.67;;;;;;;;;;4364220;32;20593;-69
2021/07/08 06:33:26;;;;;;;6.85;4.60;;;;;;;;;;4364734;32;20122;-69
2021/07/08 06:35:52;;;;;;;8.93;4.35;;;;;;;;;;4350809;32;20245;-70
2021/07/08 06:38:18;;;;;;;6.80;4.35;;;;;;;;;;4364819;32;20156;-69
2021/07/08 06:40:44;;;;;;;7.22;3.75;;;;;;;;;;4364670;32;20110;-70
2021/07/08 06:43:10;;;;;;;10.25;4.35;;;;;;;;;;4364668;32;20105;-70
2021/07/08 06:45:36;;;;;;;4.32;3.70;;;;;;;;;;4350874;32;20188;-70
2021/07/08 06:48:06;;;;;;;6.40;3.25;;;;;;;;;;4364805;32;20116;-69
2021/07/08 06:50:36;;;;;;;6.18;3.90;;;;;;;;;;4364667;32;20513;-69
2021/07/08 06:53:03;;;;;;;4.65;3.78;;;;;;;;;;4364601;32;20118;-70
2021/07/08 06:55:29;;;;;;;5.80;4.50;;;;;;;;;;4364563;32;20480;-69
2021/07/08 06:57:55;;;;;;;9.10;4.45;;;;;;;;;;4350842;32;20117;-69
2021/07/08 07:00:33;;;;;;;10.52;4.10;;;;;;;;;;4364683;32;20126;-69
2021/07/08 07:02:59;;;;;;;5.95;3.37;;;;;;;;;;4364494;32;20505;-70
2021/07/08 07:05:26;;;;;;;5.45;4.00;;;;;;;;;;4364369;32;20142;-70
2021/07/08 07:07:52;;;;;;;9.68;4.65;;;;;;;;;;4364437;32;20102;-70
2021/07/08 07:10:20;;;;;;;8.13;4.45;;;;;;;;;;4364330;32;20110;-70
2021/07/08 07:12:47;;;;;;;4.57;3.40;;;;;;;;;;4350809;32;20120;-70
2021/07/08 07:15:14;;;;;;;9.75;4.60;;;;;;;;;;4350577;32;20541;-70
2021/07/08 07:17:40;;;;;;;10.98;4.20;;;;;;;;;;4350473;32;20200;-69
2021/07/08 07:20:07;;;;;;;10.27;5.05;;;;;;;;;;4364238;32;20211;-70
2021/07/08 07:22:33;;;;;;;6.30;4.18;;;;;;;;;;4350634;32;20110;-70
2021/07/08 07:24:59;;;;;;;6.03;4.10;;;;;;;;;;4350739;32;20124;-70
2021/07/08 07:27:25;;;;;;;7.20;3.87;;;;;;;;;;4364770;32;20506;-69
2021/07/08 07:29:52;;;;;;;8.77;4.18;;;;;;;;;;4364220;32;20625;-69
2021/07/08 07:32:17;;;;;;;5.57;4.25;;;;;;;;;;4364346;32;20192;-69
2021/07/08 07:34:44;;;;;;;7.37;4.40;;;;;;;;;;4364770;32;20118;-71
2021/07/08 07:37:10;;;;;;;7.28;3.00;;;;;;;;;;4364053;32;20516;-70
2021/07/08 07:39:37;;;;;;;5.43;3.85;;;;;;;;;;4364164;32;20150;-70
2021/07/08 07:42:04;;;;;;;14.90;4.62;;;;;;;;;;4363840;32;20118;-70
2021/07/08 07:44:30;;;;;;;5.22;3.47;;;;;;;;;;4364376;32;20178;-70
2021/07/08 07:46:56;;;;;;;9.48;4.70;;;;;;;;;;4363904;32;20178;-70
2021/07/08 07:49:24;;;;;;;7.68;4.43;;;;;;;;;;4364328;32;20193;-71
2021/07/08 07:51:50;;;;;;;7.60;4.12;;;;;;;;;;4363942;32;20109;-71
2021/07/08 07:54:16;;;;;;;6.20;3.75;;;;;;;;;;4364013;32;20234;-71
2021/07/08 07:56:42;;;;;;;9.75;4.20;;;;;;;;;;4363744;32;20554;-70
2021/07/08 07:59:08;;;;;;;12.32;5.18;;;;;;;;;;4364331;32;20118;-71
2021/07/08 08:01:34;;;;;;;10.82;5.22;;;;;;;;;;4363942;32;20223;-68
2021/07/08 08:04:00;;;;;;;11.43;4.90;;;;;;;;;;4363904;32;20129;-71
2021/07/08 08:09:11;;;;;;;7.20;4.80;;;;;;;;;;4363920;32;20524;-69
2021/07/08 08:11:38;;;;;;;10.77;5.50;;;;;;;;;;4363763;32;20190;-71
2021/07/08 08:14:04;;;;;;;9.88;4.70;;;;;;;;;;4350277;32;20087;-70
2021/07/08 08:16:33;;;;;;;7.50;4.90;;;;;;;;;;4363705;32;20113;-68
2021/07/08 08:18:58;;;;;;;8.10;5.10;;;;;;;;;;4363791;32;20768;-68
2021/07/08 08:21:24;;;;;;;9.57;4.90;;;;;;;;;;4363810;32;20134;-69
2021/07/08 08:23:50;;;;;;;8.40;5.28;;;;;;;;;;4363753;32;20132;-71
2021/07/08 08:26:16;;;;;;;6.32;4.78;;;;;;;;;;4363525;32;20125;-70
2021/07/08 08:28:42;;;;;;;9.23;5.15;;;;;;;;;;4363984;32;20186;-69
2021/07/08 08:31:08;;;;;;;5.47;3.80;;;;;;;;;;4363536;32;20453;-69
2021/07/08 08:33:34;;;;;;;13.93;5.80;;;;;;;;;;4364059;32;20121;-70
2021/07/08 08:36:00;;;;;;;8.45;5.30;;;;;;;;;;4349750;32;20140;-68
2021/07/08 08:38:25;;;;;;;4.25;3.62;;;;;;;;;;4349725;32;20299;-68
2021/07/08 08:40:52;;;;;;;11.45;4.53;;;;;;;;;;4363563;32;20125;-69
2021/07/08 08:43:18;;;;;;;5.57;4.05;;;;;;;;;;4349839;32;20109;-68
2021/07/08 08:45:47;;;;;;;11.18;4.45;;;;;;;;;;4363689;32;20490;-69
2021/07/08 08:48:13;;;;;;;5.90;4.22;;;;;;;;;;4363535;32;20105;-69
2021/07/08 08:50:46;;;;;;;8.35;4.82;;;;;;;;;;4349878;32;20125;-69
2021/07/08 08:53:13;;;;;;;8.57;3.80;;;;;;;;;;4363667;32;20184;-69
2021/07/08 08:55:40;;;;;;;12.05;4.78;;;;;;;;;;4363472;32;20133;-69
2021/07/08 08:58:07;;;;;;;5.93;4.30;;;;;;;;;;4346921;32;20106;-68
2021/07/08 09:00:43;;;;;;;4.12;2.62;;;;;;;;;;4348564;32;20130;-69
2021/07/08 09:03:14;;;;;;;12.25;5.75;;;;;;;;;;4347144;33;20114;-69
2021/07/08 09:05:41;;;;;;;7.85;5.10;;;;;;;;;;4348537;32;20554;-69
2021/07/08 09:08:09;;;;;;;5.50;3.72;;;;;;;;;;4347378;33;20437;-69
2021/07/08 09:10:35;;;;;;;17.08;5.20;;;;;;;;;;4347108;33;20102;-69
2021/07/08 09:13:01;;;;;;;8.50;4.82;;;;;;;;;;4322561;33;20118;-69
2021/07/08 09:15:26;;;;;;;15.98;5.45;;;;;;;;;;4348769;32;20102;-69
2021/07/08 09:17:52;;;;;;;10.35;4.85;;;;;;;;;;4348398;32;20627;-69
2021/07/08 09:20:19;;;;;;;23.67;5.78;;;;;;;;;;4348440;32;20145;-69
2021/07/08 09:22:45;;;;;;;11.80;5.57;;;;;;;;;;4347001;33;20133;-69
2021/07/08 09:25:21;;;;;;;7.15;4.72;;;;;;;;;;4348567;32;20118;-69
2021/07/08 09:27:47;;;;;;;8.27;4.80;;;;;;;;;;4348263;32;20175;-69
2021/07/08 09:30:24;;;;;;;13.15;5.82;;;;;;;;;;4334565;33;20544;-69
2021/07/08 09:32:50;;;;;;;6.03;4.65;;;;;;;;;;4348319;32;20117;-72
2021/07/08 09:35:15;;;;;;;7.45;4.87;;;;;;;;;;4334813;33;20604;-69
2021/07/08 09:37:41;;;;;;;10.52;5.75;;;;;;;;;;4334593;33;20125;-69
2021/07/08 09:40:08;;;;;;;8.85;5.20;;;;;;;;;;4346710;33;20142;-69
2021/07/08 09:42:36;;;;;;;10.98;4.60;;;;;;;;;;4348203;32;20146;-69
2021/07/08 09:45:07;;;;;;;6.82;4.12;;;;;;;;;;4346901;33;20418;-69
2021/07/08 09:47:33;;;;;;;9.45;4.90;;;;;;;;;;4346557;33;20171;-69
2021/07/08 09:49:59;;;;;;;7.82;4.50;;;;;;;;;;4348274;32;20115;-69
2021/07/08 09:52:25;;;;;;;6.37;4.37;;;;;;;;;;4346830;33;20126;-68
2021/07/08 09:57:35;;;;;;;8.07;3.58;;;;;;;;;;4353905;32;20452;-69
2021/07/08 10:00:24;;;;;;;13.07;4.10;;;;;;;;;;4362854;32;20234;-68
2021/07/08 10:02:51;;;;;;;6.37;4.00;;;;;;;;;;4362482;32;20117;-69
2021/07/08 10:05:17;;;;;;;11.57;4.87;;;;;;;;;;4362211;32;20106;-68
2021/07/08 10:07:43;;;;;;;6.35;4.30;;;;;;;;;;4363074;32;20433;-69
2021/07/08 10:10:09;;;;;;;6.00;4.45;;;;;;;;;;4349201;32;20173;-68
2021/07/08 10:12:36;;;;;;;6.80;3.85;;;;;;;;;;4362759;32;20098;-68
2021/07/08 10:15:03;;;;;;;3.60;3.05;;;;;;;;;;4336563;32;20519;-68
2021/07/08 10:17:30;;;;;;;6.18;4.32;;;;;;;;;;4362602;32;20092;-69
2021/07/08 10:19:56;;;;;;;6.30;3.70;;;;;;;;;;4348885;32;20116;-69
2021/07/08 10:22:22;;;;;;;7.85;3.55;;;;;;;;;;4362567;32;20117;-68
2021/07/08 10:24:49;;;;;;;6.20;4.18;;;;;;;;;;4336832;32;20207;-68
2021/07/08 10:27:16;;;;;;;8.98;4.55;;;;;;;;;;4348785;32;20113;-69
2021/07/08 10:29:41;;;;;;;8.25;4.28;;;;;;;;;;4336577;32;20097;-69
2021/07/08 10:32:08;;;;;;;10.45;4.20;;;;;;;;;;4348865;32;20477;-69
2021/07/08 10:34:43;;;;;;;5.12;3.92;;;;;;;;;;4348815;32;20512;-69
2021/07/08 10:37:09;;;;;;;5.95;4.05;;;;;;;;;;4362428;32;20121;-69
2021/07/08 10:39:41;;;;;;;4.82;3.70;;;;;;;;;;4362657;32;20242;-69
2021/07/08 10:42:07;;;;;;;6.20;4.68;;;;;;;;;;4348678;32;20137;-68
2021/07/08 10:44:33;;;;;;;6.57;4.37;;;;;;;;;;4348690;32;20192;-68
2021/07/08 10:47:00;;;;;;;8.77;4.10;;;;;;;;;;4362360;32;20091;-69
2021/07/08 10:49:38;;;;;;;6.62;4.40;;;;;;;;;;4348706;32;20134;-68
2021/07/08 10:52:08;;;;;;;5.82;3.60;;;;;;;;;;4336854;32;20145;-69
2021/07/08 10:54:34;;;;;;;10.05;4.12;;;;;;;;;;4348509;32;20540;-69
2021/07/08 10:57:01;;;;;;;13.40;4.10;;;;;;;;;;4362152;32;20117;-69
2021/07/08 10:59:45;;;;;;;9.73;4.07;;;;;;;;;;4362291;32;20103;-69
2021/07/08 11:02:43;;;;;;;5.65;3.92;;;;;;;;;;4362445;32;20125;-69
2021/07/08 11:05:09;;;;;;;5.68;3.62;;;;;;;;;;4362447;32;20184;-69
2021/07/08 11:07:44;;;;;;;8.40;4.20;;;;;;;;;;4336259;32;20105;-69
2021/07/08 11:10:11;;;;;;;5.93;3.62;;;;;;;;;;4348244;32;20493;-69
2021/07/08 11:12:39;;;;;;;5.87;4.35;;;;;;;;;;4362010;32;20464;-69
2021/07/08 11:15:07;;;;;;;5.78;3.92;;;;;;;;;;4348361;32;20106;-68
2021/07/08 11:17:40;;;;;;;11.48;4.00;;;;;;;;;;4363445;32;20194;-69
2021/07/08 11:20:33;;;;;;;5.53;3.40;;;;;;;;;;4350637;32;20110;-69
2021/07/08 11:23:27;;;;;;;8.95;4.57;;;;;;;;;;4364711;32;20110;-68
2021/07/08 11:25:53;;;;;;;3.45;2.37;;;;;;;;;;4364268;32;20121;-68
2021/07/08 11:28:27;;;;;;;2.87;2.28;;;;;;;;;;4338209;32;20463;-69
2021/07/08 11:31:03;;;;;;;7.75;3.65;;;;;;;;;;4338741;32;20534;-69
2021/07/08 11:33:31;;;;;;;5.18;3.72;;;;;;;;;;4350721;32;20122;-68
2021/07/08 11:35:58;;;;;;;8.93;4.30;;;;;;;;;;4364285;32;20542;-69
2021/07/08 11:38:25;;;;;;;6.57;3.60;;;;;;;;;;4350654;32;20117;-69
2021/07/08 11:40:52;;;;;;;6.95;3.80;;;;;;;;;;4351233;32;20264;-68
2021/07/08 11:43:33;;;;;;;5.32;3.85;;;;;;;;;;4364499;32;20090;-69
2021/07/08 11:46:09;;;;;;;10.40;3.35;;;;;;;;;;4364116;32;20208;-68
2021/07/08 11:48:39;;;;;;;6.40;4.03;;;;;;;;;;4364328;32;20432;-69
2021/07/08 11:51:35;;;;;;;5.28;4.18;;;;;;;;;;4363896;32;20182;-71
2021/07/08 11:54:01;;;;;;;4.90;3.97;;;;;;;;;;4348214;32;20113;-67
2021/07/08 11:56:27;;;;;;;5.55;3.40;;;;;;;;;;4337629;32;20122;-70
2021/07/08 11:58:53;;;;;;;11.85;3.42;;;;;;;;;;4364218;32;20106;-70
2021/07/08 12:01:19;;;;;;;7.40;3.92;;;;;;;;;;4363774;32;20536;-70
2021/07/08 12:03:51;;;;;;;5.90;3.92;;;;;;;;;;4338343;32;20097;-70
2021/07/08 12:06:20;;;;;;;4.47;3.53;;;;;;;;;;4363652;32;20214;-69
2021/07/08 12:08:51;;;;;;;10.57;3.87;;;;;;;;;;4350391;32;20090;-70
2021/07/08 12:11:38;;;;;;;5.37;4.22;;;;;;;;;;4363675;32;20110;-70
2021/07/08 12:14:14;;;;;;;7.37;4.10;;;;;;;;;;4364005;32;20109;-70
2021/07/08 12:16:41;;;;;;;5.25;3.85;;;;;;;;;;4363811;32;20098;-69
2021/07/08 12:19:30;;;;;;;2.83;2.53;;;;;;;;;;4350092;32;20598;-71
2021/07/08 12:21:59;;;;;;;6.95;3.15;;;;;;;;;;4364089;32;20476;-70
2021/07/08 12:24:27;;;;;;;9.90;4.70;;;;;;;;;;4363780;32;20100;-74
2021/07/08 12:26:55;;;;;;;4.82;3.20;;;;;;;;;;4363920;32;20113;-73
2021/07/08 12:29:22;;;;;;;8.52;3.40;;;;;;;;;;4337545;32;20109;-67
2021/07/08 12:31:59;;;;;;;3.95;3.17;;;;;;;;;;4363895;32;20105;-67
2021/07/08 12:34:25;;;;;;;11.45;4.80;;;;;;;;;;4350976;32;20145;-67
2021/07/08 12:36:51;;;;;;;8.07;4.18;;;;;;;;;;4363379;32;20125;-72
2021/07/08 12:39:19;;;;;;;6.07;4.00;;;;;;;;;;4363616;32;20461;-68
2021/07/08 12:41:46;;;;;;;6.20;4.37;;;;;;;;;;4363644;32;20130;-67
2021/07/08 12:44:13;;;;;;;5.20;3.87;;;;;;;;;;4350054;32;20433;-67
2021/07/08 12:46:38;;;;;;;10.65;4.55;;;;;;;;;;4363419;32;20133;-67
2021/07/08 12:49:09;;;;;;;5.85;4.05;;;;;;;;;;4349945;32;20465;-68
2021/07/08 12:51:35;;;;;;;6.97;4.37;;;;;;;;;;4349766;32;20495;-67
2021/07/08 12:54:01;;;;;;;7.00;3.50;;;;;;;;;;4350119;32;20117;-67
2021/07/08 12:56:27;;;;;;;11.48;3.83;;;;;;;;;;4363392;32;20213;-71
2021/07/08 12:59:00;;;;;;;12.73;4.03;;;;;;;;;;4349718;32;20102;-67
2021/07/08 13:01:29;;;;;;;4.90;3.62;;;;;;;;;;4363676;32;20154;-67
2021/07/08 13:03:56;;;;;;;5.50;3.78;;;;;;;;;;4350082;32;20527;-69
2021/07/08 13:06:29;;;;;;;6.57;4.53;;;;;;;;;;4363148;32;20102;-68
2021/07/08 13:09:08;;;;;;;7.75;3.92;;;;;;;;;;4363323;32;20114;-68
2021/07/08 13:11:35;;;;;;;6.12;4.25;;;;;;;;;;4349715;32;20184;-69
2021/07/08 13:14:24;;;;;;;7.78;4.22;;;;;;;;;;4363266;32;20218;-69
2021/07/08 13:17:04;;;;;;;6.35;3.78;;;;;;;;;;4363268;32;20114;-68
2021/07/08 13:19:31;;;;;;;7.97;4.53;;;;;;;;;;4349706;32;20101;-68
2021/07/08 13:21:57;;;;;;;8.85;4.95;;;;;;;;;;4363425;32;20219;-68
2021/07/08 13:24:24;;;;;;;7.47;4.53;;;;;;;;;;4347216;32;20114;-68
2021/07/08 13:26:50;;;;;;;8.55;3.95;;;;;;;;;;4363205;32;20500;-67
2021/07/08 13:29:22;;;;;;;8.85;3.60;;;;;;;;;;4362757;32;20192;-70
2021/07/08 13:31:48;;;;;;;9.55;3.55;;;;;;;;;;4338105;32;20193;-70
2021/07/08 13:34:29;;;;;;;8.75;4.05;;;;;;;;;;4363291;32;20132;-69
2021/07/08 13:36:55;;;;;;;5.55;3.28;;;;;;;;;;4362813;32;20132;-64
2021/07/08 13:39:24;;;;;;;7.32;3.90;;;;;;;;;;4362041;32;20114;-64
2021/07/08 13:41:51;;;;;;;6.97;4.22;;;;;;;;;;4362922;32;20128;-64
2021/07/08 13:44:22;;;;;;;9.27;4.32;;;;;;;;;;4363050;32;20113;-64
2021/07/08 13:47:00;;;;;;;5.30;4.25;;;;;;;;;;4362825;32;20110;-63
2021/07/08 13:49:56;;;;;;;6.65;4.43;;;;;;;;;;4363128;32;20191;-65
2021/07/08 13:52:24;;;;;;;8.48;4.00;;;;;;;;;;4361067;32;20113;-65
2021/07/08 13:54:50;;;;;;;9.48;4.40;;;;;;;;;;4362912;32;20270;-64
2021/07/08 13:57:19;;;;;;;10.30;4.05;;;;;;;;;;4362565;32;20137;-64
2021/07/08 13:59:45;;;;;;;11.12;4.75;;;;;;;;;;4362936;32;20097;-65
2021/07/08 14:02:11;;;;;;;10.63;4.43;;;;;;;;;;4362704;32;20099;-65
2021/07/08 14:04:37;;;;;;;13.15;4.18;;;;;;;;;;4349105;32;20140;-65
2021/07/08 14:07:03;;;;;;;11.75;4.10;;;;;;;;;;4349244;32;20101;-65
2021/07/08 14:09:29;;;;;;;12.25;5.03;;;;;;;;;;4363090;32;20106;-66
2021/07/08 14:11:56;;;;;;;7.20;4.20;;;;;;;;;;4349019;32;20110;-66
2021/07/08 14:14:23;;;;;;;10.07;4.90;;;;;;;;;;4336698;32;20125;-65
2021/07/08 14:16:49;;;;;;;8.05;4.43;;;;;;;;;;4362404;32;20102;-65
2021/07/08 14:19:15;;;;;;;9.90;4.15;;;;;;;;;;4362649;32;20136;-66
2021/07/08 14:21:41;;;;;;;13.65;4.75;;;;;;;;;;4362727;32;20128;-65
2021/07/08 14:24:07;;;;;;;9.77;3.97;;;;;;;;;;4362614;32;20596;-66
2021/07/08 14:26:33;;;;;;;16.67;4.60;;;;;;;;;;4362391;32;20113;-65
2021/07/08 14:28:59;;;;;;;11.12;4.95;;;;;;;;;;4362659;32;20110;-65
2021/07/08 14:31:25;;;;;;;6.20;4.57;;;;;;;;;;4362550;32;20206;-66
2021/07/08 14:33:51;;;;;;;7.20;3.62;;;;;;;;;;4362481;32;20104;-66
2021/07/08 14:36:17;;;;;;;9.85;4.60;;;;;;;;;;4362387;32;20124;-65
2021/07/08 14:38:43;;;;;;;12.32;4.85;;;;;;;;;;4362429;32;20126;-65
2021/07/08 14:41:09;;;;;;;8.93;4.55;;;;;;;;;;4362245;32;20109;-65
2021/07/08 14:44:21;;;;;;;10.40;4.55;;;;;;;;;;4362408;32;20087;-65
2021/07/08 14:46:52;;;;;;;9.88;3.92;;;;;;;;;;4336014;32;20122;-65
2021/07/08 14:49:18;;;;;;;8.68;4.00;;;;;;;;;;4362559;32;20116;-65